Time;durP1;ratioP1;P1;durP2;ratioP2;P2;SDS_P1;SDS_P2;PMS_P1;PMS_P2;Temp;Humidity;BMP_temperature;BMP_pressure;BME280_temperature;BME280_humidity;BME280_pressure;Samples;Min_cycle;Max_cycle;Signal;HPM_P1;HPM_P2
2021/03/02 00:01:41;;;;;;;21.67;11.43;;;3.80;82.40;;;;;;4989238;28;20190;-77
2021/03/02 00:04:07;;;;;;;16.43;8.63;;;3.80;82.30;;;;;;4988958;28;20209;-76
2021/03/02 00:06:33;;;;;;;18.87;11.47;;;3.80;82.40;;;;;;4989431;28;20529;-77
2021/03/02 00:09:00;;;;;;;25.53;12.07;;;3.90;82.40;;;;;;4989560;28;20185;-77
2021/03/02 00:11:27;;;;;;;21.40;12.03;;;3.80;82.60;;;;;;4989151;28;20189;-77
2021/03/02 00:13:53;;;;;;;20.23;11.53;;;3.80;82.40;;;;;;4988342;28;20189;-77
2021/03/02 00:16:24;;;;;;;23.53;11.87;;;3.80;82.40;;;;;;4989329;28;20192;-77
2021/03/02 00:19:00;;;;;;;23.23;11.23;;;3.80;82.70;;;;;;4987923;28;20182;-77
2021/03/02 00:21:40;;;;;;;15.80;10.67;;;3.80;82.60;;;;;;4987913;28;20553;-76
2021/03/02 00:24:10;;;;;;;17.70;9.03;;;3.80;82.30;;;;;;4988789;28;20739;-77
2021/03/02 00:26:41;;;;;;;19.67;11.13;;;3.80;82.60;;;;;;4989126;28;20201;-77
2021/03/02 00:29:08;;;;;;;20.47;11.23;;;3.80;82.60;;;;;;4987486;28;20726;-77
2021/03/02 00:31:35;;;;;;;18.63;11.93;;;3.80;82.60;;;;;;4988694;28;20331;-77
2021/03/02 00:34:01;;;;;;;17.97;11.27;;;3.80;82.40;;;;;;4988076;28;20190;-78
2021/03/02 00:36:27;;;;;;;22.03;11.23;;;3.80;82.50;;;;;;4987861;28;20188;-77
2021/03/02 00:38:53;;;;;;;21.80;12.03;;;3.80;82.60;;;;;;4987784;28;20181;-77
2021/03/02 00:41:19;;;;;;;26.80;13.30;;;3.80;82.50;;;;;;4987666;28;20263;-77
2021/03/02 00:43:45;;;;;;;23.33;13.30;;;3.80;82.60;;;;;;4989349;28;20684;-77
2021/03/02 00:46:11;;;;;;;22.97;13.30;;;3.80;82.50;;;;;;4987993;28;20188;-77
2021/03/02 00:48:36;;;;;;;24.13;12.80;;;3.70;82.70;;;;;;4988990;28;20675;-77
2021/03/02 00:51:02;;;;;;;21.27;12.70;;;3.70;82.70;;;;;;4987756;28;20209;-77
2021/03/02 00:53:28;;;;;;;28.33;12.97;;;3.70;82.70;;;;;;4987885;28;20205;-77
2021/03/02 00:55:54;;;;;;;18.57;11.80;;;3.70;83.00;;;;;;4988082;28;20185;-77
2021/03/02 00:58:20;;;;;;;17.97;10.23;;;3.60;83.30;;;;;;4992538;28;20185;-77
2021/03/02 01:00:46;;;;;;;19.13;10.03;;;3.60;83.60;;;;;;4992331;28;20185;-77
2021/03/02 01:03:12;;;;;;;15.57;7.70;;;3.60;83.60;;;;;;4992304;28;20660;-76
2021/03/02 01:05:37;;;;;;;15.37;10.10;;;3.50;83.80;;;;;;4992631;28;20225;-77
2021/03/02 01:08:21;;;;;;;17.47;9.70;;;3.50;84.00;;;;;;4992615;28;20208;-77
2021/03/02 01:10:48;;;;;;;15.17;8.23;;;3.50;83.80;;;;;;4992314;28;20182;-77
2021/03/02 01:13:13;;;;;;;17.40;9.17;;;3.50;83.90;;;;;;4992464;28;20201;-77
2021/03/02 01:15:39;;;;;;;17.33;8.97;;;3.40;83.90;;;;;;4992281;28;20665;-77
2021/03/02 01:18:05;;;;;;;18.57;9.30;;;3.40;84.00;;;;;;4992723;28;20576;-77
2021/03/02 01:20:31;;;;;;;8.77;5.60;;;3.40;83.90;;;;;;4991898;28;20720;-77
2021/03/02 01:22:57;;;;;;;11.70;7.73;;;3.40;83.80;;;;;;4992156;28;20269;-77
2021/03/02 01:25:23;;;;;;;19.93;8.60;;;3.40;84.10;;;;;;4992291;28;20679;-77
2021/03/02 01:27:49;;;;;;;15.93;7.73;;;3.30;84.20;;;;;;4992539;28;20173;-77
2021/03/02 01:30:16;;;;;;;14.97;7.40;;;3.30;84.30;;;;;;4992822;28;20186;-77
2021/03/02 01:32:42;;;;;;;16.53;8.20;;;3.30;84.20;;;;;;4987482;28;20570;-77
2021/03/02 01:35:12;;;;;;;11.00;7.40;;;3.30;84.00;;;;;;4971637;28;20202;-77
2021/03/02 01:37:38;;;;;;;10.33;7.07;;;3.20;83.90;;;;;;4974874;28;20182;-77
2021/03/02 01:40:12;;;;;;;13.37;6.87;;;3.20;84.20;;;;;;4992119;28;20335;-77
2021/03/02 01:42:38;;;;;;;11.43;7.43;;;3.10;84.20;;;;;;4992091;28;20191;-77
2021/03/02 01:45:12;;;;;;;19.43;7.90;;;3.10;84.10;;;;;;4991100;28;20696;-77
2021/03/02 01:47:39;;;;;;;12.00;7.87;;;3.00;84.20;;;;;;4990199;28;20169;-77
2021/03/02 01:50:08;;;;;;;13.60;8.23;;;3.00;84.20;;;;;;4992266;28;20184;-77
2021/03/02 01:52:35;;;;;;;13.40;7.70;;;2.90;84.40;;;;;;4990062;28;20185;-77
2021/03/02 01:55:02;;;;;;;17.87;9.90;;;2.90;84.50;;;;;;4991744;28;20264;-77
2021/03/02 01:57:28;;;;;;;21.67;9.73;;;2.80;84.80;;;;;;4990330;28;20193;-77
2021/03/02 01:59:54;;;;;;;20.30;11.03;;;2.80;85.00;;;;;;4991934;28;20181;-77
2021/03/02 02:02:37;;;;;;;18.10;11.10;;;2.80;85.20;;;;;;4991257;28;20190;-77
2021/03/02 02:05:06;;;;;;;19.03;11.80;;;2.70;85.60;;;;;;4992234;28;20197;-77
2021/03/02 02:07:42;;;;;;;22.50;12.70;;;2.70;86.00;;;;;;4989215;28;20178;-76
2021/03/02 02:10:16;;;;;;;25.50;11.70;;;2.70;85.80;;;;;;4991677;28;20205;-77
2021/03/02 02:12:49;;;;;;;19.87;10.60;;;2.70;85.90;;;;;;4992095;28;20173;-78
2021/03/02 02:15:20;;;;;;;20.77;10.90;;;2.70;85.80;;;;;;4990126;28;20647;-76
2021/03/02 02:17:54;;;;;;;23.53;10.00;;;2.70;85.70;;;;;;4991253;28;20200;-76
2021/03/02 02:20:44;;;;;;;22.37;10.20;;;2.60;85.80;;;;;;4990176;28;20217;-77
2021/03/02 02:23:39;;;;;;;15.53;8.87;;;2.60;85.90;;;;;;4988809;28;20268;-77
2021/03/02 02:26:32;;;;;;;12.53;7.73;;;2.50;86.40;;;;;;5019040;28;20950;-77
2021/03/02 02:29:00;;;;;;;14.13;7.20;;;2.40;86.30;;;;;;4979585;28;20190;-77
2021/03/02 02:31:31;;;;;;;16.63;8.07;;;2.40;86.40;;;;;;4971350;28;20782;-77
2021/03/02 02:33:57;;;;;;;14.53;8.10;;;2.40;86.40;;;;;;4988066;28;20181;-77
2021/03/02 02:36:24;;;;;;;13.03;7.27;;;2.40;86.30;;;;;;4989700;28;20177;-77
2021/03/02 02:38:56;;;;;;;14.57;8.23;;;2.30;86.40;;;;;;4990976;28;20252;-77
2021/03/02 02:41:24;;;;;;;13.67;7.90;;;2.30;86.50;;;;;;4991048;28;20238;-77
2021/03/02 02:43:51;;;;;;;16.23;9.00;;;2.20;86.70;;;;;;4989315;28;20185;-77
2021/03/02 02:46:18;;;;;;;13.60;7.33;;;2.10;86.80;;;;;;4982214;28;20187;-76
2021/03/02 02:48:47;;;;;;;15.30;7.13;;;2.10;87.10;;;;;;4986068;28;20192;-76
2021/03/02 02:51:13;;;;;;;13.47;8.77;;;2.10;87.50;;;;;;4989465;28;20174;-76
2021/03/02 02:53:40;;;;;;;14.73;8.63;;;2.10;87.10;;;;;;4990293;28;20185;-76
2021/03/02 02:56:07;;;;;;;14.60;7.93;;;2.10;87.20;;;;;;4990328;28;20237;-76
2021/03/02 02:58:52;;;;;;;12.73;7.43;;;2.00;87.20;;;;;;4990558;28;20186;-76
2021/03/02 03:01:19;;;;;;;13.40;8.33;;;2.00;87.30;;;;;;4986755;28;20185;-76
2021/03/02 03:03:47;;;;;;;12.53;8.47;;;2.00;87.50;;;;;;4986604;28;20272;-77
2021/03/02 03:06:16;;;;;;;18.97;8.47;;;2.00;87.60;;;;;;4978579;28;20956;-77
2021/03/02 03:08:51;;;;;;;12.90;8.13;;;2.00;87.70;;;;;;4969081;28;20233;-77
2021/03/02 03:11:21;;;;;;;13.00;7.73;;;1.90;87.80;;;;;;4969613;28;20229;-77
2021/03/02 03:13:48;;;;;;;11.87;6.87;;;1.90;87.70;;;;;;4968336;28;20740;-77
2021/03/02 03:16:14;;;;;;;11.37;6.80;;;1.90;87.90;;;;;;4977513;28;20695;-77
2021/03/02 03:18:45;;;;;;;9.83;6.63;;;1.80;87.80;;;;;;4989428;28;20240;-77
2021/03/02 03:21:13;;;;;;;15.93;9.17;;;1.80;88.10;;;;;;4990161;28;20182;-77
2021/03/02 03:23:40;;;;;;;17.73;9.50;;;1.80;88.60;;;;;;4989758;28;20190;-77
2021/03/02 03:26:06;;;;;;;13.70;8.37;;;1.80;88.70;;;;;;4989205;28;20596;-77
2021/03/02 03:28:32;;;;;;;13.47;8.97;;;1.70;88.50;;;;;;4990671;28;20174;-77
2021/03/02 03:31:00;;;;;;;17.67;8.47;;;1.70;88.50;;;;;;4988941;28;20185;-77
2021/03/02 03:33:26;;;;;;;15.97;8.67;;;1.70;88.40;;;;;;4989030;28;20182;-77
2021/03/02 03:35:52;;;;;;;19.83;8.60;;;1.60;88.40;;;;;;4990393;28;20213;-77
2021/03/02 03:38:18;;;;;;;12.63;7.10;;;1.60;88.40;;;;;;4990512;28;20217;-77
2021/03/02 03:40:44;;;;;;;13.40;8.13;;;1.60;88.60;;;;;;4988208;28;20209;-77
2021/03/02 03:43:09;;;;;;;14.83;8.40;;;1.50;88.60;;;;;;4988873;28;20642;-77
2021/03/02 03:45:35;;;;;;;11.70;8.20;;;1.50;88.60;;;;;;5021597;28;20976;-77
2021/03/02 03:48:01;;;;;;;11.97;7.20;;;1.50;88.60;;;;;;4989728;28;20173;-77
2021/03/02 03:50:27;;;;;;;18.67;8.30;;;1.50;89.40;;;;;;4988950;28;20189;-77
2021/03/02 03:52:56;;;;;;;15.23;7.13;;;1.40;89.20;;;;;;4989770;28;20232;-77
2021/03/02 03:55:27;;;;;;;11.37;7.53;;;1.40;89.20;;;;;;4989905;28;20189;-77
2021/03/02 03:57:53;;;;;;;13.07;7.00;;;1.40;89.80;;;;;;4989270;28;20272;-77
2021/03/02 04:00:20;;;;;;;13.57;6.70;;;1.40;89.90;;;;;;4990005;28;20178;-77
2021/03/02 04:05:21;;;;;;;13.00;6.77;;;1.40;89.50;;;;;;5419157;22;20252;-75
2021/03/02 04:07:47;;;;;;;15.60;8.47;;;1.40;89.40;;;;;;4982368;28;20185;-75
2021/03/02 04:10:15;;;;;;;8.87;7.60;;;1.30;89.20;;;;;;4984340;28;20569;-75
2021/03/02 04:12:43;;;;;;;11.90;7.17;;;1.30;89.80;;;;;;4972738;28;20201;-75
2021/03/02 04:15:16;;;;;;;12.97;7.13;;;1.30;89.70;;;;;;4984249;28;20212;-76
2021/03/02 04:17:54;;;;;;;18.53;8.03;;;1.30;89.50;;;;;;4984967;28;20182;-77
2021/03/02 04:20:21;;;;;;;10.73;7.50;;;1.20;89.40;;;;;;4985767;28;20212;-76
2021/03/02 04:22:47;;;;;;;12.07;6.60;;;1.20;89.50;;;;;;4987540;28;20954;-75
2021/03/02 04:25:13;;;;;;;14.03;7.50;;;1.20;89.40;;;;;;4974429;28;20213;-75
2021/03/02 04:27:39;;;;;;;8.43;5.73;;;1.20;89.40;;;;;;4986916;28;20189;-75
2021/03/02 04:30:06;;;;;;;11.30;5.97;;;1.10;89.40;;;;;;4987455;28;20720;-74
2021/03/02 04:32:33;;;;;;;9.17;6.73;;;1.10;89.40;;;;;;4985792;28;20576;-75
2021/03/02 04:34:59;;;;;;;16.80;7.60;;;1.10;89.40;;;;;;4986083;28;20281;-75
2021/03/02 04:37:24;;;;;;;10.33;7.27;;;1.10;89.40;;;;;;4985473;28;20759;-75
2021/03/02 04:39:50;;;;;;;10.77;7.00;;;1.10;89.40;;;;;;4986912;28;21026;-75
2021/03/02 04:42:16;;;;;;;13.67;7.70;;;1.10;89.50;;;;;;4981248;28;20195;-74
2021/03/02 04:44:42;;;;;;;12.37;7.37;;;1.10;89.50;;;;;;4987179;28;20700;-75
2021/03/02 04:47:08;;;;;;;12.33;6.93;;;1.00;89.50;;;;;;4975576;28;20222;-75
2021/03/02 04:49:34;;;;;;;9.10;6.47;;;1.00;89.60;;;;;;4984571;28;20178;-74
2021/03/02 04:51:59;;;;;;;12.70;7.07;;;1.00;89.50;;;;;;4981585;28;20187;-74
2021/03/02 04:54:26;;;;;;;13.23;7.37;;;1.00;89.70;;;;;;4968171;28;20196;-74
2021/03/02 04:56:52;;;;;;;10.10;6.70;;;1.00;89.70;;;;;;4967947;28;20182;-74
2021/03/02 04:59:18;;;;;;;10.53;6.63;;;0.90;89.60;;;;;;4983536;28;20583;-74
2021/03/02 05:01:43;;;;;;;12.67;6.57;;;0.90;89.50;;;;;;4975963;28;20183;-74
2021/03/02 05:04:09;;;;;;;10.93;6.60;;;0.90;89.50;;;;;;4985069;28;20313;-75
2021/03/02 05:06:35;;;;;;;9.97;7.40;;;0.90;89.50;;;;;;4986963;28;20769;-75
2021/03/02 05:09:00;;;;;;;10.57;6.93;;;0.90;89.60;;;;;;4985908;28;20584;-75
2021/03/02 05:11:26;;;;;;;18.00;7.77;;;0.90;89.90;;;;;;4976327;28;20581;-75
2021/03/02 05:13:52;;;;;;;9.70;7.20;;;0.90;90.00;;;;;;4970491;28;20854;-76
2021/03/02 05:16:17;;;;;;;17.97;7.27;;;0.90;90.20;;;;;;4980222;28;20220;-75
2021/03/02 05:18:43;;;;;;;11.17;6.93;;;1.00;90.90;;;;;;4986928;28;20209;-75
2021/03/02 05:21:10;;;;;;;14.87;7.27;;;1.00;91.00;;;;;;4985902;28;20177;-74
2021/03/02 05:23:36;;;;;;;11.17;7.40;;;1.10;90.70;;;;;;4966018;28;20202;-74
2021/03/02 05:26:03;;;;;;;13.07;6.53;;;1.10;90.80;;;;;;4981495;28;20260;-75
2021/03/02 05:28:29;;;;;;;13.50;7.47;;;1.20;90.60;;;;;;4985502;28;20194;-76
2021/03/02 05:30:55;;;;;;;16.60;7.03;;;1.20;90.40;;;;;;4986582;28;20180;-75
2021/03/02 05:33:20;;;;;;;10.97;6.13;;;1.30;90.10;;;;;;4983949;28;20178;-75
2021/03/02 05:35:46;;;;;;;9.53;7.30;;;1.30;90.00;;;;;;4987218;28;20182;-78
2021/03/02 05:38:12;;;;;;;14.73;7.03;;;1.30;90.00;;;;;;4975177;28;20269;-74
2021/03/02 05:40:42;;;;;;;13.97;8.03;;;1.40;89.80;;;;;;4988236;28;20193;-76
2021/03/02 05:43:08;;;;;;;12.30;6.67;;;1.40;89.90;;;;;;4978069;28;21021;-76
2021/03/02 05:45:34;;;;;;;12.00;8.00;;;1.40;89.70;;;;;;4981115;28;20643;-75
2021/03/02 05:48:01;;;;;;;11.97;6.77;;;1.40;89.50;;;;;;4987421;28;20256;-75
2021/03/02 05:50:27;;;;;;;19.77;7.83;;;1.50;89.50;;;;;;4986514;28;20201;-76
2021/03/02 05:52:56;;;;;;;8.37;6.27;;;1.50;89.40;;;;;;4986237;28;20240;-76
2021/03/02 05:55:22;;;;;;;10.20;6.23;;;1.50;89.40;;;;;;4986420;28;20248;-75
2021/03/02 05:57:49;;;;;;;12.53;7.27;;;1.50;89.30;;;;;;4981557;28;20182;-76
2021/03/02 06:00:16;;;;;;;9.83;7.07;;;1.60;89.30;;;;;;4975902;28;20266;-75
2021/03/02 06:02:42;;;;;;;10.20;5.53;;;1.60;89.20;;;;;;4983165;28;20269;-75
2021/03/02 06:05:09;;;;;;;11.27;7.30;;;1.60;89.10;;;;;;4984075;28;20289;-76
2021/03/02 06:07:34;;;;;;;11.10;7.43;;;1.60;89.20;;;;;;4986280;28;20186;-75
2021/03/02 06:10:00;;;;;;;10.23;7.53;;;1.70;89.20;;;;;;4977917;28;20243;-73
2021/03/02 06:12:26;;;;;;;12.43;7.30;;;1.80;89.30;;;;;;4987789;28;20212;-74
2021/03/02 06:15:05;;;;;;;20.10;8.33;;;1.80;89.40;;;;;;4987680;28;20201;-74
2021/03/02 06:17:31;;;;;;;12.60;7.10;;;1.90;89.40;;;;;;4985119;28;20271;-73
2021/03/02 06:19:57;;;;;;;7.57;5.63;;;2.00;89.40;;;;;;4984725;28;20185;-73
2021/03/02 06:22:49;;;;;;;14.83;7.20;;;2.00;89.30;;;;;;4984052;28;20193;-75
2021/03/02 06:25:31;;;;;;;11.07;6.97;;;2.10;89.40;;;;;;4982799;28;20297;-75
2021/03/02 06:27:57;;;;;;;10.00;6.90;;;2.10;89.80;;;;;;4982924;28;20734;-72
2021/03/02 06:30:24;;;;;;;13.27;8.00;;;2.20;89.50;;;;;;4984091;28;20209;-73
2021/03/02 06:32:55;;;;;;;10.27;8.00;;;2.20;89.10;;;;;;4982069;28;20184;-73
2021/03/02 06:35:38;;;;;;;14.90;7.90;;;2.30;89.00;;;;;;4977229;28;20190;-73
2021/03/02 06:38:05;;;;;;;18.33;7.33;;;2.30;88.70;;;;;;4981782;28;20201;-73
2021/03/02 06:40:48;;;;;;;9.57;7.43;;;2.30;88.70;;;;;;4979675;28;20209;-73
2021/03/02 06:43:30;;;;;;;11.70;6.27;;;2.40;88.80;;;;;;4983533;28;20188;-76
2021/03/02 06:45:56;;;;;;;17.57;7.27;;;2.50;88.50;;;;;;4981697;28;20684;-75
2021/03/02 06:48:22;;;;;;;15.60;9.20;;;2.50;88.30;;;;;;4985994;28;20390;-74
2021/03/02 06:50:48;;;;;;;10.87;7.60;;;2.60;88.40;;;;;;4978256;28;20170;-73
2021/03/02 06:53:14;;;;;;;14.60;7.80;;;2.60;88.00;;;;;;4979366;28;20725;-73
2021/03/02 06:55:40;;;;;;;17.57;8.47;;;2.70;88.20;;;;;;4979017;28;20192;-73
2021/03/02 06:58:17;;;;;;;13.63;9.30;;;2.70;87.80;;;;;;4980507;28;20689;-73
2021/03/02 07:00:47;;;;;;;12.87;8.17;;;2.80;87.40;;;;;;4986183;28;20201;-75
2021/03/02 07:03:32;;;;;;;19.87;9.10;;;2.90;87.30;;;;;;4976556;28;20191;-75
2021/03/02 07:06:04;;;;;;;17.97;9.03;;;2.90;87.40;;;;;;4983731;28;20213;-74
2021/03/02 07:08:31;;;;;;;22.47;9.00;;;3.00;87.30;;;;;;4977943;28;20200;-74
2021/03/02 07:10:57;;;;;;;18.33;7.67;;;3.00;87.20;;;;;;4971475;28;20243;-74
2021/03/02 07:13:24;;;;;;;13.67;8.33;;;3.10;87.00;;;;;;4980767;28;20173;-74
2021/03/02 07:15:51;;;;;;;11.13;7.73;;;3.20;86.50;;;;;;4978566;28;20214;-74
2021/03/02 07:18:24;;;;;;;13.67;7.73;;;3.40;86.00;;;;;;4978679;28;20203;-75
2021/03/02 07:20:53;;;;;;;9.80;7.07;;;3.40;85.80;;;;;;4978778;28;20197;-75
2021/03/02 07:23:21;;;;;;;10.03;7.63;;;3.50;86.00;;;;;;4986478;28;20185;-75
2021/03/02 07:25:48;;;;;;;11.73;7.60;;;3.60;85.70;;;;;;4981195;28;20190;-73
2021/03/02 07:28:16;;;;;;;12.93;7.33;;;3.70;85.60;;;;;;4982438;28;20269;-73
2021/03/02 07:30:45;;;;;;;15.00;7.43;;;3.90;85.00;;;;;;4984769;28;20186;-75
2021/03/02 07:33:12;;;;;;;13.27;7.83;;;4.00;84.50;;;;;;4970987;28;20170;-73
2021/03/02 07:35:38;;;;;;;11.23;7.47;;;4.20;84.30;;;;;;4980826;28;20197;-73
2021/03/02 07:38:17;;;;;;;13.50;7.23;;;4.30;84.10;;;;;;4976681;28;20174;-74
2021/03/02 07:40:48;;;;;;;11.23;7.17;;;4.50;83.90;;;;;;4980744;28;20545;-75
2021/03/02 07:43:30;;;;;;;13.33;7.97;;;4.70;83.40;;;;;;4983132;28;20170;-75
2021/03/02 07:45:57;;;;;;;9.33;6.93;;;5.10;82.60;;;;;;4984505;28;20201;-75
2021/03/02 07:48:25;;;;;;;27.87;7.43;;;5.60;82.30;;;;;;4983889;28;20220;-75
2021/03/02 07:51:16;;;;;;;10.03;7.20;;;6.10;80.80;;;;;;4982105;28;20186;-75
2021/03/02 07:53:43;;;;;;;17.70;8.67;;;6.60;78.60;;;;;;4958435;28;20232;-75
2021/03/02 07:56:20;;;;;;;17.77;9.40;;;7.10;77.10;;;;;;4962283;28;20201;-74
2021/03/02 07:59:04;;;;;;;16.33;10.43;;;7.90;76.90;;;;;;4963052;28;20218;-75
2021/03/02 08:01:31;;;;;;;17.20;9.63;;;9.00;74.00;;;;;;4963758;28;20778;-74
2021/03/02 08:04:14;;;;;;;16.90;10.00;;;10.00;71.40;;;;;;4963113;28;20205;-75
2021/03/02 08:06:43;;;;;;;18.10;10.17;;;11.00;70.60;;;;;;4962901;28;20178;-73
2021/03/02 08:09:24;;;;;;;15.63;10.90;;;11.90;68.20;;;;;;4963751;28;20596;-75
2021/03/02 08:11:50;;;;;;;14.93;10.23;;;13.00;66.20;;;;;;4963490;28;21054;-75
2021/03/02 08:14:16;;;;;;;19.30;10.47;;;13.90;65.00;;;;;;4963336;28;20178;-74
2021/03/02 08:16:53;;;;;;;27.98;11.63;;;14.70;63.70;;;;;;4963614;28;20758;-74
2021/03/02 08:19:51;;;;;;;14.48;9.07;;;15.40;61.70;;;;;;4963653;28;20186;-74
2021/03/02 08:22:16;;;;;;;14.85;10.25;;;16.20;58.70;;;;;;4940137;28;20229;-75
2021/03/02 08:25:02;;;;;;;14.88;10.68;;;16.80;56.70;;;;;;4963458;28;20229;-74
2021/03/02 08:27:57;;;;;;;17.85;11.10;;;17.30;55.90;;;;;;4960000;28;20643;-74
2021/03/02 08:30:24;;;;;;;21.77;11.85;;;17.80;55.80;;;;;;4963609;28;20227;-74
2021/03/02 08:32:51;;;;;;;19.08;10.80;;;18.30;55.80;;;;;;4985943;28;20178;-74
2021/03/02 08:35:18;;;;;;;13.65;9.63;;;18.80;53.30;;;;;;4984514;28;20547;-74
2021/03/02 08:37:44;;;;;;;18.65;11.07;;;19.20;52.70;;;;;;4985999;28;20356;-73
2021/03/02 08:40:35;;;;;;;22.05;11.35;;;19.60;51.70;;;;;;4985588;28;20178;-74
2021/03/02 08:43:10;;;;;;;15.95;11.20;;;20.00;51.90;;;;;;4945787;28;20585;-74
2021/03/02 08:45:38;;;;;;;13.15;9.82;;;19.80;50.70;;;;;;4941054;29;20582;-73
2021/03/02 08:48:24;;;;;;;12.90;8.90;;;20.00;49.70;;;;;;4929544;29;20338;-74
2021/03/02 08:51:08;;;;;;;10.13;7.60;;;20.30;49.90;;;;;;4944258;29;20187;-74
2021/03/02 08:53:40;;;;;;;12.00;7.45;;;20.80;49.20;;;;;;4943805;29;20274;-74
2021/03/02 08:56:31;;;;;;;8.00;7.22;;;21.30;49.50;;;;;;4943564;29;20210;-74
2021/03/02 08:59:09;;;;;;;7.07;6.38;;;21.80;47.60;;;;;;4906212;29;20234;-74
2021/03/02 09:01:37;;;;;;;8.25;6.93;;;22.10;46.90;;;;;;4906548;29;20517;-74
2021/03/02 09:04:17;;;;;;;8.05;7.07;;;22.20;47.40;;;;;;4905468;29;20202;-74
2021/03/02 09:06:47;;;;;;;4.32;4.00;;;22.50;46.50;;;;;;4906344;29;20204;-74
2021/03/02 09:09:17;;;;;;;7.93;6.35;;;22.30;44.50;;;;;;4887139;29;20188;-74
2021/03/02 09:11:47;;;;;;;6.80;6.13;;;22.20;44.00;;;;;;4903477;29;20339;-74
2021/03/02 09:14:14;;;;;;;6.15;5.50;;;22.00;45.60;;;;;;4905994;29;20654;-74
2021/03/02 09:16:44;;;;;;;4.78;3.65;;;21.80;44.70;;;;;;4906161;29;20239;-74
2021/03/02 09:19:24;;;;;;;4.10;3.90;;;21.50;44.50;;;;;;4911008;29;20177;-74
2021/03/02 09:21:58;;;;;;;3.83;3.53;;;21.50;44.50;;;;;;4928777;29;20187;-74
2021/03/02 09:24:26;;;;;;;10.65;3.40;;;21.50;44.90;;;;;;4928807;29;21099;-74
2021/03/02 09:27:01;;;;;;;5.32;4.03;;;22.00;45.70;;;;;;4928869;29;20290;-74
2021/03/02 09:29:50;;;;;;;3.60;3.40;;;22.60;45.70;;;;;;4928889;29;20244;-72
2021/03/02 09:32:22;;;;;;;3.80;3.55;;;23.40;44.30;;;;;;4928333;29;20759;-74
2021/03/02 09:34:52;;;;;;;3.95;3.65;;;23.90;42.40;;;;;;4929676;28;20239;-74
2021/03/02 09:37:19;;;;;;;3.70;3.50;;;23.70;41.70;;;;;;4989072;28;20248;-74
2021/03/02 09:40:06;;;;;;;4.40;3.83;;;23.70;42.00;;;;;;4981078;28;20210;-74
2021/03/02 09:42:34;;;;;;;3.72;3.05;;;23.20;41.60;;;;;;4981688;28;20273;-73
2021/03/02 09:45:09;;;;;;;3.80;3.50;;;23.10;42.60;;;;;;4987980;28;20200;-74
2021/03/02 09:47:37;;;;;;;3.13;2.92;;;22.80;42.40;;;;;;4984385;28;20324;-73
2021/03/02 09:50:14;;;;;;;2.83;2.72;;;23.00;42.00;;;;;;4986138;28;21118;-73
2021/03/02 09:52:42;;;;;;;2.15;2.15;;;23.40;41.50;;;;;;4985239;28;20178;-73
2021/03/02 09:55:11;;;;;;;2.78;2.67;;;23.80;42.70;;;;;;4980342;28;20194;-72
2021/03/02 09:57:58;;;;;;;2.78;2.67;;;24.10;42.40;;;;;;4982315;28;20995;-73
2021/03/02 10:00:48;;;;;;;2.30;2.20;;;24.10;41.00;;;;;;4984556;28;20184;-72
2021/03/02 10:03:14;;;;;;;2.20;2.20;;;24.00;41.00;;;;;;4888479;29;20236;-72
2021/03/02 10:05:41;;;;;;;2.55;2.45;;;23.20;41.30;;;;;;4888432;29;20231;-72
2021/03/02 10:08:28;;;;;;;2.13;2.03;;;22.70;41.90;;;;;;4889451;29;20196;-72
2021/03/02 10:10:58;;;;;;;2.33;2.33;;;22.70;42.30;;;;;;4884299;29;20198;-72
2021/03/02 10:13:35;;;;;;;2.42;2.33;;;23.40;43.00;;;;;;4889269;29;20232;-72
2021/03/02 10:16:22;;;;;;;2.55;2.35;;;23.70;40.70;;;;;;4877499;29;20185;-73
2021/03/02 10:18:55;;;;;;;2.35;2.35;;;23.00;41.30;;;;;;4872729;29;20606;-72
2021/03/02 10:21:24;;;;;;;3.28;2.83;;;22.30;41.90;;;;;;4883943;29;20241;-73
2021/03/02 10:23:52;;;;;;;1.92;1.92;;;22.50;42.80;;;;;;4888737;29;20640;-73
2021/03/02 10:26:27;;;;;;;1.90;1.75;;;22.80;42.30;;;;;;4886950;29;20251;-73
2021/03/02 10:28:53;;;;;;;2.10;2.05;;;22.70;42.10;;;;;;4883195;29;20188;-72
2021/03/02 10:31:19;;;;;;;2.30;1.95;;;22.50;41.60;;;;;;4888393;29;20185;-72
2021/03/02 10:33:45;;;;;;;2.00;1.90;;;22.60;42.00;;;;;;4884887;29;20212;-72
2021/03/02 10:36:25;;;;;;;1.95;1.95;;;22.40;41.70;;;;;;4889067;29;20181;-72
2021/03/02 10:38:52;;;;;;;2.30;2.20;;;22.70;43.20;;;;;;4888588;29;20197;-72
2021/03/02 10:41:19;;;;;;;1.90;1.80;;;23.10;42.80;;;;;;4967802;28;20201;-72
2021/03/02 10:43:47;;;;;;;2.10;2.10;;;23.60;41.60;;;;;;4985209;28;20187;-72
2021/03/02 10:46:13;;;;;;;2.50;2.30;;;24.30;42.00;;;;;;4980255;28;20232;-72
2021/03/02 10:48:39;;;;;;;2.45;2.35;;;25.10;40.70;;;;;;4984801;28;20194;-73
2021/03/02 10:51:05;;;;;;;3.38;3.05;;;25.00;40.70;;;;;;4983430;28;20173;-72
2021/03/02 10:53:30;;;;;;;3.58;2.40;;;24.90;41.50;;;;;;4982791;28;20184;-73
2021/03/02 10:55:56;;;;;;;2.17;2.08;;;25.20;41.60;;;;;;4984829;28;20587;-72
2021/03/02 10:58:22;;;;;;;2.45;2.20;;;25.80;40.60;;;;;;4986959;28;20197;-72
2021/03/02 11:00:47;;;;;;;6.15;2.58;;;26.40;40.50;;;;;;4986567;28;20182;-72
2021/03/02 11:03:13;;;;;;;1.92;1.83;;;27.00;39.60;;;;;;4982816;28;20197;-72
2021/03/02 11:05:39;;;;;;;2.20;2.10;;;27.20;38.00;;;;;;4983622;28;20292;-73
2021/03/02 11:08:05;;;;;;;2.10;2.00;;;26.90;38.90;;;;;;4986873;28;20271;-73
2021/03/02 11:10:31;;;;;;;2.30;2.10;;;26.90;38.70;;;;;;4982639;28;20519;-73
2021/03/02 11:12:57;;;;;;;4.45;2.40;;;27.10;39.30;;;;;;4981305;28;20674;-72
2021/03/02 11:15:23;;;;;;;1.90;1.80;;;27.30;38.90;;;;;;4983363;28;20564;-73
2021/03/02 11:17:49;;;;;;;2.65;2.45;;;27.60;39.20;;;;;;4980597;28;20192;-73
2021/03/02 11:20:16;;;;;;;2.58;2.38;;;28.10;39.00;;;;;;4982013;28;20229;-74
2021/03/02 11:22:42;;;;;;;2.65;2.53;;;28.50;39.90;;;;;;4979600;28;20185;-73
2021/03/02 11:25:08;;;;;;;2.78;2.25;;;28.20;37.70;;;;;;4981586;28;20205;-71
2021/03/02 11:27:34;;;;;;;3.00;2.90;;;27.50;37.90;;;;;;4984165;28;20735;-73
2021/03/02 11:30:00;;;;;;;2.58;2.20;;;26.70;38.50;;;;;;4981441;28;20177;-73
2021/03/02 11:32:25;;;;;;;2.58;2.47;;;26.30;39.80;;;;;;4982015;28;20652;-73
2021/03/02 11:34:51;;;;;;;3.03;2.90;;;26.30;39.20;;;;;;4986102;28;20186;-73
2021/03/02 11:37:17;;;;;;;2.78;2.13;;;26.20;38.10;;;;;;4975629;28;20251;-72
2021/03/02 11:39:43;;;;;;;2.22;2.08;;;26.00;40.10;;;;;;4984597;28;20197;-71
2021/03/02 11:42:09;;;;;;;2.40;2.20;;;26.10;38.50;;;;;;4983023;28;20669;-73
2021/03/02 11:44:34;;;;;;;3.28;3.00;;;25.70;38.70;;;;;;4982109;28;20233;-73
2021/03/02 11:47:00;;;;;;;2.78;2.58;;;24.90;38.70;;;;;;4981040;28;20291;-73
2021/03/02 11:49:26;;;;;;;2.25;2.13;;;24.50;40.00;;;;;;4982933;28;20321;-73
2021/03/02 11:51:51;;;;;;;2.22;2.13;;;24.70;40.40;;;;;;4982190;28;20193;-73
2021/03/02 11:54:17;;;;;;;2.50;2.47;;;25.20;40.50;;;;;;4986365;28;20196;-73
2021/03/02 11:56:43;;;;;;;3.58;2.20;;;25.80;40.60;;;;;;4985850;28;20178;-72
2021/03/02 11:59:08;;;;;;;2.03;2.03;;;26.30;40.20;;;;;;4984857;28;20539;-71
2021/03/02 12:01:34;;;;;;;3.95;2.97;;;26.70;39.50;;;;;;4985767;28;20324;-72
2021/03/02 12:06:44;;;;;;;2.97;2.75;;;27.60;38.20;;;;;;4985091;28;20181;-73
2021/03/02 12:09:10;;;;;;;2.55;2.45;;;28.00;39.00;;;;;;4984310;28;20189;-72
2021/03/02 12:11:36;;;;;;;2.67;2.58;;;27.90;39.00;;;;;;4983306;28;20789;-72
2021/03/02 12:14:01;;;;;;;2.85;2.75;;;27.30;38.20;;;;;;4979596;28;20217;-74
2021/03/02 12:16:27;;;;;;;3.17;2.97;;;27.10;39.40;;;;;;4978716;28;20722;-73
2021/03/02 12:18:53;;;;;;;3.05;2.85;;;26.90;37.40;;;;;;4979911;28;20269;-72
2021/03/02 12:21:18;;;;;;;3.13;3.03;;;26.50;38.30;;;;;;4983174;28;20189;-73
2021/03/02 12:23:44;;;;;;;5.97;2.88;;;25.90;39.20;;;;;;4974744;28;20199;-73
2021/03/02 12:26:10;;;;;;;2.60;2.53;;;25.80;38.90;;;;;;4979054;28;20260;-73
2021/03/02 12:28:35;;;;;;;3.55;3.35;;;26.00;40.00;;;;;;4979780;28;20197;-73
2021/03/02 12:31:01;;;;;;;2.97;2.78;;;26.20;40.20;;;;;;4980205;28;21053;-74
2021/03/02 12:33:27;;;;;;;2.28;2.17;;;26.60;40.30;;;;;;4971352;28;20189;-73
2021/03/02 12:35:52;;;;;;;2.35;2.33;;;27.10;40.20;;;;;;4975391;28;20197;-73
2021/03/02 12:38:18;;;;;;;2.45;2.35;;;27.50;38.90;;;;;;4984456;28;20716;-73
2021/03/02 12:40:44;;;;;;;2.65;2.50;;;27.60;39.70;;;;;;4977626;28;20187;-72
2021/03/02 12:43:10;;;;;;;2.90;2.80;;;27.50;37.80;;;;;;4980911;28;20195;-72
2021/03/02 12:45:41;;;;;;;3.15;2.90;;;27.20;38.90;;;;;;4977680;28;20217;-72
2021/03/02 12:48:07;;;;;;;3.92;3.72;;;26.40;38.20;;;;;;4980814;28;20718;-72
2021/03/02 12:50:33;;;;;;;3.92;3.65;;;25.50;39.00;;;;;;4982066;28;20228;-73
2021/03/02 12:52:58;;;;;;;3.60;3.30;;;24.60;39.30;;;;;;4986962;28;20819;-73
2021/03/02 12:55:24;;;;;;;3.65;3.35;;;24.00;40.30;;;;;;4984423;28;20216;-72
2021/03/02 12:57:50;;;;;;;3.25;3.05;;;23.30;41.30;;;;;;4981929;28;20232;-72
2021/03/02 13:00:16;;;;;;;3.38;3.20;;;22.90;41.50;;;;;;4979724;28;20174;-72
2021/03/02 13:02:43;;;;;;;3.53;3.42;;;22.70;42.00;;;;;;4984148;28;20316;-74